createdAt,value
2022-11-21T00:03:20.088Z,7.45
2022-11-21T00:18:10.730Z,7.49
2022-11-21T00:33:00.984Z,7.58
2022-11-21T00:47:52.567Z,7.57
2022-11-21T01:02:42.718Z,7.54
2022-11-21T01:17:32.693Z,7.54
2022-11-21T01:32:23.737Z,7.56
2022-11-21T01:47:14.219Z,7.53
2022-11-21T02:02:04.902Z,7.58
2022-11-21T02:16:56.612Z,7.63
2022-11-21T02:31:46.413Z,7.56
2022-11-21T02:46:37.700Z,7.62
2022-11-21T03:01:28.539Z,7.63
2022-11-21T03:16:19.062Z,7.67
2022-11-21T03:31:10.135Z,7.74
2022-11-21T03:46:01.155Z,7.77
2022-11-21T04:00:52.309Z,7.82
2022-11-21T04:15:43.403Z,7.78
2022-11-21T04:30:34.262Z,7.71
2022-11-21T04:45:25.030Z,7.69
2022-11-21T05:00:24.172Z,7.63
2022-11-21T05:15:08.725Z,7.57
2022-11-21T05:30:00.169Z,7.66
2022-11-21T05:44:53.193Z,7.65
2022-11-21T05:59:44.587Z,7.50
2022-11-21T06:14:40.236Z,7.50
2022-11-21T06:29:30.767Z,7.44
2022-11-21T06:44:21.904Z,7.48
2022-11-21T06:59:12.943Z,7.50
2022-11-21T07:28:55.369Z,7.59
2022-11-21T07:43:46.086Z,7.60
2022-11-21T07:58:36.364Z,7.67
2022-11-21T08:13:27.856Z,7.77
2022-11-21T08:28:18.574Z,7.92
2022-11-21T08:43:09.838Z,8.14
2022-11-21T08:58:01.533Z,8.15
2022-11-21T09:12:52.976Z,8.03
2022-11-21T09:27:47.036Z,7.97
2022-11-21T09:42:45.383Z,8.09
2022-11-21T09:57:41.408Z,8.16
2022-11-21T10:12:50.814Z,8.43
2022-11-21T10:27:48.363Z,8.75
2022-11-21T10:42:55.243Z,8.96
2022-11-21T10:57:52.636Z,9.22
2022-11-21T11:13:05.248Z,9.39
2022-11-21T11:27:59.357Z,9.69
2022-11-21T11:43:30.995Z,9.98
2022-11-21T11:58:44.292Z,10.21
2022-11-21T12:13:41.002Z,10.74
2022-11-21T12:28:51.051Z,11.00
2022-11-21T12:43:50.838Z,11.26
2022-11-21T12:58:38.925Z,11.08
2022-11-21T13:13:29.743Z,11.38
2022-11-21T13:28:20.460Z,11.13
2022-11-21T13:43:34.252Z,10.89
2022-11-21T13:58:34.837Z,10.79
2022-11-21T14:13:30.305Z,10.72
2022-11-21T14:28:26.986Z,10.67
2022-11-21T14:43:29.037Z,10.49
2022-11-21T14:58:23.748Z,10.37
2022-11-21T15:13:13.791Z,10.25
2022-11-21T15:28:04.623Z,10.08
2022-11-21T15:42:54.969Z,9.90
2022-11-21T15:57:44.535Z,9.66
2022-11-21T16:12:35.227Z,9.49
2022-11-21T16:27:25.735Z,9.31
2022-11-21T16:42:15.270Z,9.06
2022-11-21T16:57:04.434Z,8.84
2022-11-21T17:11:54.847Z,8.77
2022-11-21T17:56:57.123Z,8.72
2022-11-21T18:11:46.441Z,8.73
2022-11-21T18:26:37.319Z,8.76
2022-11-21T18:41:28.274Z,8.80
2022-11-21T18:56:18.651Z,8.86
2022-11-21T19:11:09.293Z,8.87
2022-11-21T19:26:02.825Z,8.95
2022-11-21T19:41:15.033Z,8.98
2022-11-21T19:56:10.140Z,8.97
2022-11-21T20:11:04.744Z,8.91
2022-11-21T20:25:57.197Z,8.78
2022-11-21T20:40:49.124Z,8.67
2022-11-21T20:55:38.313Z,8.50
2022-11-21T21:13:49.228Z,8.43
2022-11-21T21:25:45.566Z,8.28
2022-11-21T21:40:36.759Z,8.28
2022-11-21T21:55:27.579Z,8.26
2022-11-21T22:10:18.529Z,8.32
2022-11-21T22:25:10.039Z,8.30
2022-11-21T22:40:01.325Z,8.39
2022-11-21T22:54:51.805Z,8.40
2022-11-21T23:09:52.157Z,8.43
2022-11-21T23:24:33.787Z,8.39
2022-11-21T23:39:25.417Z,8.37
2022-11-21T23:54:15.290Z,8.34
